Time;durP1;ratioP1;P1;durP2;ratioP2;P2;SDS_P1;SDS_P2;PMS_P1;PMS_P2;Temp;Humidity;BMP_temperature;BMP_pressure;BME280_temperature;BME280_humidity;BME280_pressure;Samples;Min_cycle;Max_cycle;Signal;HPM_P1;HPM_P2
2023/02/14 01:54:00;;;;;;;24.37;15.90;;;;;;;0.97;100.00;102284.31;5111577;27;21150;-67
2023/02/14 01:56:30;;;;;;;25.13;16.67;;;;;;;0.94;100.00;102276.50;5086647;28;20483;-66
2023/02/14 01:58:59;;;;;;;27.90;14.80;;;;;;;0.71;100.00;102267.25;5085451;28;20457;-68
2023/02/14 02:01:25;;;;;;;24.20;14.90;;;;;;;0.72;100.00;102279.50;5099128;28;20511;-67
2023/02/14 02:03:54;;;;;;;23.80;14.43;;;;;;;0.76;100.00;102275.03;5102921;28;20597;-66
2023/02/14 02:06:25;;;;;;;24.33;14.00;;;;;;;0.65;100.00;102269.97;5098527;28;20508;-67
2023/02/14 02:08:59;;;;;;;21.47;14.10;;;;;;;0.48;100.00;102230.78;5113458;28;20443;-66
2023/02/14 02:11:27;;;;;;;22.27;13.67;;;;;;;0.51;100.00;102258.81;5096458;28;20508;-67
2023/02/14 02:13:54;;;;;;;21.13;14.20;;;;;;;0.47;100.00;102268.53;5111017;28;20535;-66
2023/02/14 02:16:31;;;;;;;21.80;13.50;;;;;;;0.42;100.00;102261.59;5117988;28;20481;-66
2023/02/14 02:19:10;;;;;;;22.73;15.87;;;;;;;0.45;100.00;102258.91;5118818;28;20487;-66
2023/02/14 02:21:58;;;;;;;20.50;13.47;;;;;;;0.40;100.00;102255.50;5097672;28;20492;-66
2023/02/14 02:24:32;;;;;;;19.63;13.20;;;;;;;0.33;100.00;102247.72;5096013;28;20439;-67
2023/02/14 02:27:15;;;;;;;19.93;13.83;;;;;;;0.35;100.00;102256.44;5084290;28;20917;-66
2023/02/14 02:30:12;;;;;;;20.17;13.37;;;;;;;0.46;100.00;102244.88;5077732;28;20427;-66
2023/02/14 02:33:03;;;;;;;19.27;12.43;;;;;;;0.33;100.00;102224.03;5078117;28;20450;-66
2023/02/14 02:36:08;;;;;;;21.73;14.50;;;;;;;0.31;100.00;102239.00;5072210;28;20503;-66
2023/02/14 02:38:44;;;;;;;21.77;13.60;;;;;;;0.28;100.00;102238.16;5038214;28;20544;-65
2023/02/14 02:41:17;;;;;;;18.37;12.83;;;;;;;0.23;100.00;102232.97;5086759;28;20456;-66
2023/02/14 02:43:50;;;;;;;16.87;12.40;;;;;;;0.26;100.00;102232.94;5095142;28;20639;-67
2023/02/14 02:49:08;;;;;;;17.17;12.43;;;;;;;0.27;100.00;102197.81;5078565;28;20459;-66
2023/02/14 02:54:31;;;;;;;17.83;12.93;;;;;;;0.28;100.00;102220.63;5062094;28;20453;-66
2023/02/14 02:57:00;;;;;;;22.77;13.43;;;;;;;0.23;100.00;102216.34;5061766;28;20492;-66
2023/02/14 02:59:29;;;;;;;17.70;14.13;;;;;;;0.30;100.00;102212.72;5066813;28;20522;-66
2023/02/14 03:01:59;;;;;;;16.73;13.03;;;;;;;0.20;100.00;102219.00;5081968;28;20509;-66
2023/02/14 03:09:58;;;;;;;16.70;12.70;;;;;;;0.03;100.00;102201.72;5063308;28;20457;-65
2023/02/14 03:13:01;;;;;;;18.43;15.43;;;;;;;0.02;100.00;102204.38;5063385;28;20480;-65
2023/02/14 03:15:39;;;;;;;16.67;12.97;;;;;;;0.06;100.00;102200.84;5043813;28;20478;-65
2023/02/14 03:20:55;;;;;;;18.97;12.50;;;;;;;0.03;100.00;102199.09;5062842;28;20485;-66
2023/02/14 03:23:27;;;;;;;17.87;13.50;;;;;;;0.04;100.00;102197.38;5063183;28;21063;-66
2023/02/14 03:26:02;;;;;;;18.10;12.80;;;;;;;-0.03;100.00;102193.97;5062607;28;20486;-66
2023/02/14 03:28:34;;;;;;;16.33;11.93;;;;;;;-0.12;100.00;102200.22;5062373;28;20462;-66
2023/02/14 03:31:04;;;;;;;17.83;13.17;;;;;;;-0.17;100.00;102196.81;5064213;28;20509;-66
2023/02/14 03:33:34;;;;;;;15.40;11.83;;;;;;;-0.05;100.00;102195.75;5063887;28;20450;-66
2023/02/14 03:36:05;;;;;;;20.30;13.30;;;;;;;-0.05;100.00;102198.38;5062878;28;20478;-67
2023/02/14 03:38:38;;;;;;;15.37;11.90;;;;;;;-0.09;100.00;102191.41;5062530;28;20491;-66
2023/02/14 03:41:07;;;;;;;19.77;13.47;;;;;;;-0.13;100.00;102190.59;5061811;28;20478;-67
2023/02/14 03:43:36;;;;;;;16.87;12.40;;;;;;;-0.18;100.00;102186.31;5083409;28;20523;-66
2023/02/14 03:46:06;;;;;;;18.03;13.37;;;;;;;-0.16;100.00;102184.53;5076970;28;20912;-67
2023/02/14 03:48:33;;;;;;;16.30;13.70;;;;;;;-0.22;100.00;102181.09;5058945;28;20450;-67
2023/02/14 03:51:01;;;;;;;17.93;13.70;;;;;;;-0.17;100.00;102180.16;5051691;28;20601;-66
2023/02/14 03:53:30;;;;;;;15.87;12.50;;;;;;;-0.08;100.00;102185.28;5062648;28;21074;-67
2023/02/14 03:56:02;;;;;;;17.20;12.63;;;;;;;-0.09;100.00;102180.91;5074942;28;20509;-68
2023/02/14 03:58:33;;;;;;;13.50;11.83;;;;;;;-0.18;100.00;102175.78;5067057;28;21002;-67
2023/02/14 04:01:03;;;;;;;17.40;13.33;;;;;;;-0.23;100.00;102181.13;5062128;28;20479;-66
2023/02/14 04:03:31;;;;;;;17.43;13.07;;;;;;;-0.30;100.00;102176.84;5062563;28;20553;-68
2023/02/14 04:05:58;;;;;;;19.77;14.20;;;;;;;-0.26;100.00;102176.78;5069414;28;20547;-69
2023/02/14 04:08:26;;;;;;;16.20;12.90;;;;;;;-0.36;100.00;102176.94;5066570;28;20462;-67
2023/02/14 04:10:54;;;;;;;18.73;14.13;;;;;;;-0.26;100.00;102175.91;5063764;28;20492;-68
2023/02/14 04:13:22;;;;;;;18.20;14.37;;;;;;;-0.15;100.00;102171.34;5062820;28;20446;-68
2023/02/14 04:15:49;;;;;;;19.93;14.50;;;;;;;-0.17;100.00;102167.88;5061431;28;20561;-69
2023/02/14 04:21:00;;;;;;;18.90;13.50;;;;;;;-0.34;100.00;102170.78;5063076;28;20480;-67
2023/02/14 04:23:26;;;;;;;20.30;13.93;;;;;;;-0.44;100.00;102170.03;5062472;28;20945;-67
2023/02/14 04:25:53;;;;;;;17.63;13.13;;;;;;;-0.49;100.00;102179.75;5061537;28;20525;-67
2023/02/14 04:28:20;;;;;;;17.83;13.43;;;;;;;-0.42;100.00;102164.75;5061524;28;20496;-68
2023/02/14 04:30:48;;;;;;;17.50;13.20;;;;;;;-0.32;100.00;102170.75;5061858;28;20510;-67
2023/02/14 04:33:14;;;;;;;19.80;14.00;;;;;;;-0.23;100.00;102141.69;5063011;28;20504;-68
2023/02/14 04:35:41;;;;;;;21.37;13.00;;;;;;;-0.30;100.00;102161.06;5070628;28;20516;-67
2023/02/14 04:38:08;;;;;;;18.80;13.60;;;;;;;-0.40;100.00;102160.34;5061982;28;20468;-66
2023/02/14 04:40:35;;;;;;;19.57;14.10;;;;;;;-0.33;100.00;102163.75;5060591;28;20473;-66
2023/02/14 04:43:03;;;;;;;19.20;13.37;;;;;;;-0.25;100.00;102162.72;5062063;28;20521;-67
2023/02/14 04:45:30;;;;;;;19.60;14.83;;;;;;;-0.21;100.00;102159.19;5060991;28;20997;-68
2023/02/14 04:47:58;;;;;;;19.43;14.90;;;;;;;-0.22;100.00;102164.47;5061430;28;20969;-68
2023/02/14 04:50:25;;;;;;;19.67;14.27;;;;;;;-0.38;100.00;102164.69;5061163;28;20474;-67
2023/02/14 04:52:52;;;;;;;17.83;12.53;;;;;;;-0.31;100.00;102154.97;5061488;28;20489;-68
2023/02/14 04:55:19;;;;;;;17.20;13.10;;;;;;;-0.35;100.00;102148.00;5063902;28;20525;-67
2023/02/14 04:57:45;;;;;;;17.20;14.27;;;;;;;-0.31;100.00;102147.09;5061636;28;20493;-67
2023/02/14 05:00:13;;;;;;;17.43;12.23;;;;;;;-0.34;100.00;102151.53;5072710;28;20508;-65
2023/02/14 05:02:40;;;;;;;16.67;13.20;;;;;;;-0.29;100.00;102149.69;5059944;28;20530;-66
2023/02/14 05:05:08;;;;;;;16.60;13.60;;;;;;;-0.23;100.00;102157.47;5060333;28;20454;-67
2023/02/14 05:07:35;;;;;;;17.40;13.90;;;;;;;-0.24;100.00;102161.00;5050443;28;20465;-67
2023/02/14 05:10:01;;;;;;;19.33;13.20;;;;;;;-0.27;100.00;102151.38;5060664;28;20465;-66
2023/02/14 05:12:28;;;;;;;17.83;13.30;;;;;;;-0.31;100.00;102154.97;5060934;28;20475;-65
2023/02/14 05:14:56;;;;;;;15.00;12.13;;;;;;;-0.27;100.00;102155.78;5067885;28;20462;-66
2023/02/14 05:17:23;;;;;;;18.37;13.47;;;;;;;-0.38;100.00;102159.44;5054000;28;20482;-66
2023/02/14 05:19:50;;;;;;;15.93;13.07;;;;;;;-0.41;100.00;102156.84;5061104;28;20453;-66
2023/02/14 05:22:18;;;;;;;21.13;14.50;;;;;;;-0.37;100.00;102157.66;5060306;28;20482;-66
2023/02/14 05:24:44;;;;;;;17.80;12.33;;;;;;;-0.42;100.00;102154.25;5061373;28;20483;-66
2023/02/14 05:27:11;;;;;;;18.13;13.30;;;;;;;-0.48;100.00;102149.97;5060079;28;20508;-67
2023/02/14 05:29:37;;;;;;;17.30;12.87;;;;;;;-0.51;100.00;102162.28;5064732;28;20495;-67
2023/02/14 05:32:04;;;;;;;17.20;11.70;;;;;;;-0.57;100.00;102155.38;5067244;28;20472;-66
2023/02/14 05:34:31;;;;;;;17.50;14.90;;;;;;;-0.55;100.00;102153.56;5073901;28;21001;-71
2023/02/14 05:36:58;;;;;;;17.60;12.00;;;;;;;-0.52;100.00;102155.28;5061774;28;20563;-79
2023/02/14 05:39:26;;;;;;;19.40;13.73;;;;;;;-0.52;100.00;102150.00;5056993;28;20474;-72
2023/02/14 05:41:52;;;;;;;20.27;15.47;;;;;;;-0.51;100.00;102152.63;5062163;28;21051;-72
2023/02/14 05:44:19;;;;;;;20.60;14.83;;;;;;;-0.48;100.00;102149.97;5062287;28;20531;-72
2023/02/14 05:46:45;;;;;;;16.93;14.17;;;;;;;-0.49;100.00;102152.59;5060685;28;20513;-72
2023/02/14 05:49:12;;;;;;;19.30;13.87;;;;;;;-0.52;100.00;102155.28;5062465;28;20496;-71
2023/02/14 05:51:39;;;;;;;15.50;12.77;;;;;;;-0.45;100.00;102164.78;5079860;28;20571;-72
2023/02/14 05:54:05;;;;;;;20.10;15.07;;;;;;;-0.54;100.00;102157.91;5080546;28;20482;-71
2023/02/14 05:56:34;;;;;;;21.20;15.83;;;;;;;-0.58;100.00;102164.13;5077920;28;20482;-71
2023/02/14 05:59:01;;;;;;;19.37;13.90;;;;;;;-0.70;100.00;102156.41;5058564;28;20534;-71
2023/02/14 06:01:27;;;;;;;21.33;14.80;;;;;;;-0.87;100.00;102162.75;5061756;28;20506;-69
2023/02/14 06:03:54;;;;;;;22.80;16.73;;;;;;;-0.88;100.00;102163.66;5060184;28;20558;-73
2023/02/14 06:06:20;;;;;;;23.03;17.00;;;;;;;-0.94;100.00;102163.72;5059857;28;20500;-73
2023/02/14 06:08:47;;;;;;;23.43;17.10;;;;;;;-0.93;100.00;102167.25;5060525;28;20479;-73
2023/02/14 06:11:14;;;;;;;21.90;17.10;;;;;;;-0.89;100.00;102168.94;5059480;28;20465;-73
2023/02/14 06:13:42;;;;;;;21.50;15.13;;;;;;;-0.77;100.00;102176.63;5068274;28;20488;-72
2023/02/14 06:16:08;;;;;;;24.33;16.33;;;;;;;-0.79;100.00;102168.78;5060641;28;20500;-73
2023/02/14 06:18:35;;;;;;;21.33;15.00;;;;;;;-0.82;100.00;102171.44;5059767;28;20461;-73
2023/02/14 06:21:02;;;;;;;22.27;16.23;;;;;;;-0.72;100.00;102173.97;5075223;28;20576;-73
2023/02/14 06:23:28;;;;;;;27.40;16.50;;;;;;;-0.72;100.00;102182.69;5074921;28;20478;-73
2023/02/14 06:25:55;;;;;;;24.10;15.77;;;;;;;-0.77;100.00;102177.50;5060067;28;20497;-73
2023/02/14 06:28:21;;;;;;;24.17;15.50;;;;;;;-0.76;100.00;102174.00;5059637;28;20486;-72
2023/02/14 06:30:49;;;;;;;24.10;17.53;;;;;;;-0.77;100.00;102168.75;5060316;28;20477;-73
2023/02/14 06:33:16;;;;;;;23.77;15.53;;;;;;;-0.72;100.00;102180.06;5040637;28;20487;-74
2023/02/14 06:35:43;;;;;;;25.53;15.83;;;;;;;-0.69;100.00;102166.03;5064064;28;20468;-73
2023/02/14 06:38:09;;;;;;;24.43;16.67;;;;;;;-0.76;100.00;102178.38;5072553;28;20515;-72
2023/02/14 06:40:36;;;;;;;21.43;15.57;;;;;;;-0.70;100.00;102157.28;5061041;28;20473;-75
2023/02/14 06:43:03;;;;;;;23.90;16.93;;;;;;;-0.82;100.00;102178.44;5063807;28;20478;-75
2023/02/14 06:45:29;;;;;;;22.20;15.07;;;;;;;-0.69;100.00;102180.03;5063401;28;20474;-77
2023/02/14 06:47:58;;;;;;;22.13;16.03;;;;;;;-0.55;100.00;102181.63;5066011;28;20464;-76
2023/02/14 06:50:25;;;;;;;27.87;16.20;;;;;;;-0.50;100.00;102177.16;5083424;28;20430;-77
2023/02/14 06:52:52;;;;;;;21.53;16.07;;;;;;;-0.50;100.00;102177.16;5082431;28;20550;-77
2023/02/14 06:55:18;;;;;;;23.50;14.13;;;;;;;-0.48;100.00;102178.00;5081129;28;20448;-77
2023/02/14 06:57:45;;;;;;;25.17;16.73;;;;;;;-0.40;100.00;102177.00;5083401;28;20691;-75
2023/02/14 07:00:13;;;;;;;25.40;17.03;;;;;;;-0.28;100.00;102181.22;5071243;28;20438;-76
2023/02/14 07:02:40;;;;;;;23.13;14.97;;;;;;;-0.21;100.00;102176.69;5063854;28;20455;-76
2023/02/14 07:05:08;;;;;;;25.73;16.17;;;;;;;-0.10;100.00;102185.28;5063637;28;20480;-71
2023/02/14 07:07:35;;;;;;;23.77;15.40;;;;;;;-0.10;100.00;102180.03;5083462;28;20440;-74
2023/02/14 07:10:01;;;;;;;20.93;14.63;;;;;;;-0.06;100.00;102188.75;5082398;28;20448;-76
2023/02/14 07:12:28;;;;;;;24.57;17.47;;;;;;;-0.06;100.00;102176.44;5082789;28;20480;-76
2023/02/14 07:14:55;;;;;;;25.77;17.07;;;;;;;-0.07;100.00;102187.88;5083784;28;20439;-73
2023/02/14 07:17:21;;;;;;;24.10;16.60;;;;;;;0.08;100.00;102186.75;5081684;28;20551;-74
2023/02/14 07:19:48;;;;;;;26.63;16.77;;;;;;;0.08;100.00;102184.13;5082873;28;20451;-73
2023/02/14 07:22:16;;;;;;;25.37;17.53;;;;;;;0.11;100.00;102184.06;5082967;28;20512;-73
2023/02/14 07:24:43;;;;;;;27.93;16.93;;;;;;;0.18;100.00;102182.22;5082385;28;20984;-74
2023/02/14 07:27:09;;;;;;;26.60;17.93;;;;;;;0.30;100.00;102182.00;5066448;28;21032;-74
2023/02/14 07:29:36;;;;;;;26.13;17.77;;;;;;;0.43;100.00;102187.88;5071902;28;20465;-73
2023/02/14 07:32:03;;;;;;;25.97;17.47;;;;;;;0.58;100.00;102183.25;5082119;28;20486;-72
2023/02/14 07:34:29;;;;;;;28.17;16.63;;;;;;;0.64;100.00;102189.25;5083762;28;20475;-73
2023/02/14 07:36:56;;;;;;;24.60;15.73;;;;;;;0.72;100.00;102192.63;5082329;28;20545;-74
2023/02/14 07:39:24;;;;;;;25.07;17.17;;;;;;;0.83;100.00;102187.13;5078379;28;20466;-72
2023/02/14 07:41:51;;;;;;;25.97;17.43;;;;;;;0.92;100.00;102189.59;5062803;28;20495;-74
2023/02/14 07:44:18;;;;;;;25.60;17.40;;;;;;;0.97;100.00;102184.22;5063569;28;20499;-73
2023/02/14 07:46:44;;;;;;;26.20;18.00;;;;;;;1.04;100.00;102187.59;5062851;28;20487;-75
2023/02/14 07:49:11;;;;;;;26.53;19.37;;;;;;;1.12;100.00;102173.38;5079174;28;20450;-74
2023/02/14 07:51:38;;;;;;;30.53;19.07;;;;;;;1.18;100.00;102179.41;5062161;28;20533;-74
2023/02/14 07:54:05;;;;;;;28.33;17.40;;;;;;;1.80;100.00;102171.84;5062683;28;20899;-74
2023/02/14 07:56:33;;;;;;;25.00;18.50;;;;;;;3.49;100.00;102168.09;5062577;28;20518;-72
2023/02/14 07:59:00;;;;;;;30.30;19.90;;;;;;;5.47;100.00;102173.56;5062549;28;20480;-75
2023/02/14 08:01:27;;;;;;;26.57;19.20;;;;;;;6.75;100.00;102169.09;5079698;28;20488;-75
2023/02/14 08:03:55;;;;;;;28.87;20.30;;;;;;;8.19;100.00;102163.13;5081821;28;20541;-74
2023/02/14 08:06:24;;;;;;;25.83;17.73;;;;;;;9.29;82.18;102160.03;5080999;28;20469;-74
2023/02/14 08:08:53;;;;;;;19.00;15.43;;;;;;;9.89;73.40;102159.31;5062376;28;20454;-74
2023/02/14 08:14:04;;;;;;;19.33;15.00;;;;;;;8.29;76.29;102159.06;5053222;28;20452;-73
2023/02/14 08:16:33;;;;;;;20.20;13.93;;;;;;;8.14;83.92;102164.31;5061737;28;20836;-74
2023/02/14 08:19:00;;;;;;;19.37;15.63;;;;;;;10.28;72.12;102157.94;5062931;28;20547;-73
2023/02/14 08:21:27;;;;;;;17.50;14.27;;;;;;;11.25;62.87;102163.53;5075957;28;20497;-74
2023/02/14 08:23:55;;;;;;;20.23;15.80;;;;;;;11.67;61.14;102163.53;5074588;28;20558;-73
2023/02/14 08:26:21;;;;;;;15.87;14.20;;;;;;;11.66;60.54;102156.44;5061682;28;20530;-74
2023/02/14 08:28:49;;;;;;;17.63;15.60;;;;;;;11.37;64.06;102158.34;5061728;28;20468;-72
2023/02/14 08:31:25;;;;;;;18.43;14.10;;;;;;;12.34;57.86;102152.84;5070096;28;20479;-75
2023/02/14 08:33:52;;;;;;;18.03;15.37;;;;;;;12.37;62.15;102149.91;5082256;28;20449;-74
2023/02/14 08:36:20;;;;;;;19.73;15.63;;;;;;;13.14;55.73;102154.38;5081493;28;20492;-74
2023/02/14 08:38:49;;;;;;;16.60;14.20;;;;;;;13.64;54.94;102151.69;5081114;28;20460;-73
2023/02/14 08:41:17;;;;;;;16.70;14.90;;;;;;;12.74;58.00;102146.50;5077062;28;20481;-74
2023/02/14 08:43:45;;;;;;;17.77;13.40;;;;;;;13.37;58.36;102161.69;5062224;28;20495;-72
2023/02/14 08:46:13;;;;;;;16.83;14.10;;;;;;;12.41;57.32;102151.44;5061639;28;20524;-74
2023/02/14 08:48:42;;;;;;;14.87;12.80;;;;;;;9.91;70.97;102150.28;5066615;28;20471;-74
2023/02/14 08:51:11;;;;;;;15.90;14.00;;;;;;;10.97;66.72;102148.38;5081559;28;20819;-74
2023/02/14 08:53:38;;;;;;;16.23;13.90;;;;;;;9.63;81.75;102147.47;5066929;28;20489;-74
2023/02/14 08:56:06;;;;;;;17.90;14.80;;;;;;;10.07;80.36;102144.88;5061091;28;20469;-74
2023/02/14 08:58:35;;;;;;;22.47;14.70;;;;;;;9.60;84.02;102151.19;5061292;28;20997;-74
2023/02/14 09:01:03;;;;;;;15.30;12.90;;;;;;;10.61;86.31;102141.69;5069839;28;20506;-73
2023/02/14 09:03:30;;;;;;;19.03;14.70;;;;;;;9.80;85.58;102136.66;5080922;28;20444;-74
2023/02/14 09:06:03;;;;;;;22.70;15.27;;;;;;;9.78;85.17;102139.41;5063583;28;20833;-74
2023/02/14 09:08:30;;;;;;;17.73;14.30;;;;;;;8.04;99.25;102140.81;5067383;28;20539;-74
2023/02/14 09:10:58;;;;;;;16.97;14.60;;;;;;;9.70;91.36;102132.81;5080673;28;20499;-73
2023/02/14 09:13:26;;;;;;;17.23;13.90;;;;;;;10.04;87.71;102137.03;5080572;28;20923;-71
2023/02/14 09:15:54;;;;;;;16.50;13.27;;;;;;;9.71;88.46;102140.72;5079730;28;20668;-73
2023/02/14 09:18:20;;;;;;;18.23;14.30;;;;;;;9.57;87.98;102138.00;5080855;28;20999;-74
2023/02/14 09:20:49;;;;;;;19.70;14.47;;;;;;;10.41;86.68;102136.69;5081096;28;20495;-74
2023/02/14 09:23:18;;;;;;;18.53;14.63;;;;;;;8.45;95.23;102139.63;5061019;28;20458;-72
2023/02/14 09:25:45;;;;;;;19.00;15.80;;;;;;;8.30;97.88;102134.13;5068882;28;20471;-75
2023/02/14 09:28:13;;;;;;;18.57;14.60;;;;;;;7.66;100.00;102137.41;5081101;28;20459;-72
2023/02/14 09:30:40;;;;;;;19.37;15.23;;;;;;;9.14;95.34;102124.41;5062640;28;20476;-75
2023/02/14 09:33:08;;;;;;;21.33;16.50;;;;;;;7.93;100.00;102140.47;5061276;28;20551;-73
2023/02/14 09:35:35;;;;;;;17.30;15.20;;;;;;;8.55;100.00;102140.88;5061737;28;20475;-74
2023/02/14 09:38:02;;;;;;;19.50;14.70;;;;;;;10.09;92.22;102134.97;5080808;28;20434;-74
2023/02/14 09:40:33;;;;;;;16.77;13.23;;;;;;;10.23;89.71;102139.47;5073842;28;20502;-74
2023/02/14 09:43:08;;;;;;;17.70;14.70;;;;;;;12.38;77.49;102135.56;5080157;28;20850;-74
2023/02/14 09:45:37;;;;;;;16.53;13.37;;;;;;;14.52;61.65;102132.44;5079594;28;20498;-74
2023/02/14 09:48:07;;;;;;;15.20;12.37;;;;;;;11.31;75.15;102143.53;5064065;28;20437;-74
2023/02/14 09:50:39;;;;;;;19.67;15.20;;;;;;;9.65;90.87;102133.06;5061023;28;20473;-74
2023/02/14 09:53:13;;;;;;;19.77;15.43;;;;;;;11.17;87.86;102135.53;5068796;28;20543;-73
2023/02/14 09:55:46;;;;;;;17.23;14.10;;;;;;;11.93;76.14;102127.00;5079202;28;20534;-75
2023/02/14 09:58:17;;;;;;;16.03;14.33;;;;;;;11.21;79.37;102134.38;5080117;28;20444;-74
2023/02/14 10:00:47;;;;;;;16.83;13.63;;;;;;;14.81;65.38;102132.88;5078476;28;20482;-74
2023/02/14 10:03:41;;;;;;;17.63;13.60;;;;;;;13.54;66.29;102125.50;5061176;28;21131;-73
2023/02/14 10:06:21;;;;;;;19.43;14.10;;;;;;;16.88;53.65;102123.72;5047685;28;20480;-74
2023/02/14 10:08:56;;;;;;;14.00;12.50;;;;;;;15.73;52.42;102113.72;5079895;28;20519;-74
2023/02/14 10:11:26;;;;;;;16.50;13.63;;;;;;;14.97;57.48;102119.03;5080089;28;20529;-73
2023/02/14 10:13:56;;;;;;;14.27;12.33;;;;;;;15.63;56.48;102119.00;5060859;28;20560;-74
2023/02/14 10:16:26;;;;;;;16.63;14.00;;;;;;;14.60;55.91;102116.59;5073388;28;20518;-73
2023/02/14 10:18:56;;;;;;;18.07;14.33;;;;;;;9.58;88.89;102115.66;5085217;28;20831;-74
2023/02/14 10:21:26;;;;;;;18.17;14.53;;;;;;;9.28;95.84;102116.47;5065210;28;20897;-74
2023/02/14 10:23:57;;;;;;;16.23;14.40;;;;;;;10.14;97.00;102119.50;5064658;28;20456;-73
2023/02/14 10:26:33;;;;;;;15.40;13.27;;;;;;;13.69;73.02;102110.06;5063488;28;20487;-74
2023/02/14 10:29:02;;;;;;;17.00;13.50;;;;;;;16.15;59.02;102099.44;5063811;28;20441;-74
2023/02/14 10:31:36;;;;;;;17.17;13.33;;;;;;;12.93;74.45;102112.03;5064327;28;20489;-73
2023/02/14 10:34:07;;;;;;;16.83;14.03;;;;;;;11.67;80.43;102108.13;5064486;28;20465;-72
2023/02/14 10:36:43;;;;;;;17.67;14.50;;;;;;;11.93;80.77;102102.88;5063334;28;20476;-74
2023/02/14 10:39:23;;;;;;;17.73;14.40;;;;;;;14.83;70.51;102095.03;5064613;28;20452;-73
2023/02/14 10:41:55;;;;;;;15.33;12.50;;;;;;;16.71;56.05;102085.50;5075356;28;20537;-73
2023/02/14 10:44:33;;;;;;;15.47;13.00;;;;;;;16.68;54.77;102093.03;5076890;28;20490;-75
2023/02/14 10:47:05;;;;;;;14.47;11.93;;;;;;;17.54;52.26;102084.47;5066574;28;20485;-74
2023/02/14 10:49:39;;;;;;;15.30;13.70;;;;;;;14.91;55.89;102091.72;5084463;28;20452;-74
2023/02/14 10:52:14;;;;;;;15.93;13.70;;;;;;;13.42;68.09;102080.75;5066687;28;21001;-74
2023/02/14 10:54:45;;;;;;;14.33;12.80;;;;;;;14.17;63.56;102081.38;5067355;28;20474;-75
2023/02/14 10:57:17;;;;;;;13.13;11.33;;;;;;;13.86;64.57;102084.59;5083492;28;20497;-74
2023/02/14 10:59:49;;;;;;;14.43;12.93;;;;;;;13.94;65.02;102086.72;5064087;28;20476;-74
2023/02/14 11:02:19;;;;;;;12.70;10.80;;;;;;;15.80;56.63;102079.03;5075183;28;20924;-74
2023/02/14 11:04:47;;;;;;;15.73;11.97;;;;;;;17.13;52.57;102080.03;5083541;28;20484;-74
2023/02/14 11:07:15;;;;;;;15.80;13.37;;;;;;;13.48;66.20;102063.31;5082948;28;21039;-70
2023/02/14 11:09:42;;;;;;;16.37;12.87;;;;;;;13.68;67.60;102075.22;5067927;28;20475;-75
2023/02/14 11:12:10;;;;;;;13.77;12.03;;;;;;;15.66;59.32;102066.69;5063118;28;20508;-73
2023/02/14 11:14:40;;;;;;;14.07;12.13;;;;;;;16.35;54.07;102071.59;5063393;28;20441;-75
2023/02/14 11:17:28;;;;;;;13.77;12.17;;;;;;;15.66;55.95;102066.69;5063154;28;20475;-75
2023/02/14 11:20:01;;;;;;;15.63;13.10;;;;;;;12.58;73.53;102060.84;5063391;28;20453;-75
2023/02/14 11:22:32;;;;;;;17.93;13.43;;;;;;;11.66;82.29;102062.69;5073757;28;20472;-74
2023/02/14 11:25:05;;;;;;;15.07;12.40;;;;;;;13.29;73.93;102063.78;5081968;28;20575;-74
2023/02/14 11:27:32;;;;;;;13.23;11.67;;;;;;;15.54;64.87;102063.16;5082768;28;20445;-75
2023/02/14 11:30:01;;;;;;;13.70;12.17;;;;;;;13.80;68.66;102049.25;5082334;28;20498;-73
2023/02/14 11:32:29;;;;;;;16.73;13.83;;;;;;;12.57;76.17;102053.78;5075758;28;20481;-74
2023/02/14 11:35:00;;;;;;;15.50;12.90;;;;;;;12.14;81.17;102057.66;5062598;28;20465;-74
2023/02/14 11:37:28;;;;;;;15.67;13.23;;;;;;;13.37;77.80;102042.63;5080626;28;20492;-75
2023/02/14 11:39:57;;;;;;;14.80;12.07;;;;;;;13.56;76.43;102036.72;5082211;28;20457;-74
2023/02/14 11:42:37;;;;;;;17.17;13.00;;;;;;;13.06;75.83;102027.91;5076946;28;20488;-74
2023/02/14 11:45:06;;;;;;;14.40;12.17;;;;;;;13.11;77.63;102026.56;5063272;28;20513;-75
2023/02/14 11:47:40;;;;;;;14.00;12.27;;;;;;;12.39;80.16;102026.41;5062856;28;20458;-73
2023/02/14 11:50:22;;;;;;;15.90;12.23;;;;;;;13.49;72.96;102017.50;5062450;28;20465;-72
2023/02/14 11:52:51;;;;;;;15.20;13.27;;;;;;;12.89;77.55;102013.03;5063812;28;20501;-74
2023/02/14 11:55:25;;;;;;;13.67;11.43;;;;;;;12.49;80.58;102019.44;5081768;28;20459;-74
2023/02/14 11:57:52;;;;;;;13.17;11.27;;;;;;;12.73;80.16;102007.91;5071319;28;20459;-74
2023/02/14 12:00:22;;;;;;;14.57;11.60;;;;;;;13.21;78.03;102004.41;5062547;28;20460;-74
2023/02/14 12:02:50;;;;;;;14.10;10.33;;;;;;;13.55;75.50;102002.75;5063393;28;21033;-74
2023/02/14 12:05:20;;;;;;;11.03;9.90;;;;;;;13.83;72.17;102003.31;5077084;28;20484;-72
2023/02/14 12:07:49;;;;;;;13.30;9.93;;;;;;;15.03;64.06;101999.16;5082764;28;20440;-74
2023/02/14 12:10:23;;;;;;;12.10;9.80;;;;;;;13.18;71.42;101992.06;5081189;28;20456;-74
2023/02/14 12:12:52;;;;;;;12.00;9.80;;;;;;;13.56;72.01;101989.19;5042480;28;20491;-75
2023/02/14 12:15:35;;;;;;;11.00;8.40;;;;;;;13.50;67.39;101978.91;5070875;28;20455;-74
2023/02/14 12:18:34;;;;;;;9.00;7.63;;;;;;;13.46;67.34;101981.97;5078487;28;20481;-74
2023/02/14 12:21:08;;;;;;;12.47;8.47;;;;;;;14.34;64.19;101977.81;5061456;28;20469;-74
2023/02/14 12:23:39;;;;;;;10.37;6.53;;;;;;;14.58;60.41;101970.50;5062278;28;20487;-74
2023/02/14 12:26:13;;;;;;;9.57;7.57;;;;;;;14.91;60.18;101978.63;5061224;28;20477;-74
2023/02/14 12:28:44;;;;;;;9.27;7.83;;;;;;;14.39;62.64;101976.47;5061435;28;20453;-74
2023/02/14 12:31:13;;;;;;;12.97;7.80;;;;;;;14.90;61.59;101976.94;5062027;28;20484;-75
2023/02/14 12:33:40;;;;;;;7.83;6.33;;;;;;;14.11;60.42;101970.59;5077790;28;20448;-74
2023/02/14 12:36:14;;;;;;;9.27;7.63;;;;;;;13.85;60.95;101967.28;5080005;28;20492;-74
2023/02/14 12:38:48;;;;;;;9.10;7.30;;;;;;;14.57;61.69;101966.06;5081612;28;20499;-74
2023/02/14 12:41:27;;;;;;;8.17;6.93;;;;;;;13.86;61.67;101968.13;5060866;28;20556;-75
2023/02/14 12:43:54;;;;;;;11.90;8.30;;;;;;;13.56;65.27;101962.31;5061494;28;20472;-73
2023/02/14 12:46:31;;;;;;;9.60;7.90;;;;;;;13.93;65.61;101955.91;5062000;28;20514;-74
2023/02/14 12:49:12;;;;;;;13.47;9.80;;;;;;;13.59;68.40;101945.09;5061411;28;20460;-74
2023/02/14 12:51:43;;;;;;;10.90;7.90;;;;;;;13.41;68.82;101939.31;5061080;28;20526;-73
2023/02/14 12:54:40;;;;;;;12.60;7.90;;;;;;;13.27;67.69;101934.13;5072875;28;20448;-74
2023/02/14 12:57:18;;;;;;;9.40;7.97;;;;;;;13.29;67.63;101921.41;5069947;28;20473;-74
2023/02/14 12:59:53;;;;;;;10.23;7.83;;;;;;;13.66;68.34;101921.28;5067174;28;20478;-74
2023/02/14 13:02:53;;;;;;;8.93;7.73;;;;;;;13.26;71.01;101913.59;5081801;28;21024;-75
2023/02/14 13:05:26;;;;;;;11.60;8.73;;;;;;;12.95;71.07;101914.09;5062173;28;20488;-74
2023/02/14 13:08:08;;;;;;;9.00;7.40;;;;;;;13.09;73.27;101918.44;5081148;28;20444;-74
2023/02/14 13:10:50;;;;;;;9.73;7.20;;;;;;;12.89;73.51;101917.22;5072459;28;20472;-72
2023/02/14 13:13:24;;;;;;;10.27;8.03;;;;;;;12.78;71.70;101909.97;5062439;28;20432;-74
2023/02/14 13:15:57;;;;;;;12.83;8.10;;;;;;;12.95;72.91;101910.53;5080590;28;20537;-75
2023/02/14 13:18:32;;;;;;;10.73;8.93;;;;;;;13.09;73.28;101902.31;5080093;28;20477;-70
2023/02/14 13:21:02;;;;;;;11.93;8.60;;;;;;;12.82;75.10;101898.03;5080787;28;20482;-73
2023/02/14 13:23:34;;;;;;;9.00;7.70;;;;;;;12.61;75.62;101892.44;5081402;28;20511;-73
2023/02/14 13:26:06;;;;;;;14.20;10.07;;;;;;;12.93;76.11;101889.19;5079663;28;20495;-73
2023/02/14 13:28:34;;;;;;;11.27;8.00;;;;;;;12.75;75.62;101886.06;5076415;28;20440;-74
2023/02/14 13:31:01;;;;;;;10.40;8.10;;;;;;;12.84;73.25;101883.66;5060533;28;20486;-73
2023/02/14 13:33:32;;;;;;;11.03;7.50;;;;;;;13.08;72.52;101881.78;5060017;28;20449;-74
2023/02/14 13:36:01;;;;;;;10.73;8.40;;;;;;;12.91;73.59;101882.22;5060005;28;21036;-74